Time;durP1;ratioP1;P1;durP2;ratioP2;P2;SDS_P1;SDS_P2;PMS_P1;PMS_P2;Temp;Humidity;BMP_temperature;BMP_pressure;BME280_temperature;BME280_humidity;BME280_pressure;Samples;Min_cycle;Max_cycle;Signal;HPM_P1;HPM_P2
2021/05/19 00:01:46;;;;;;;13.10;8.38;;;;;;;;;;5040185;28;20124;-69
2021/05/19 00:04:13;;;;;;;9.60;6.30;;;;;;;;;;5040493;28;20503;-71
2021/05/19 00:06:39;;;;;;;12.60;7.10;;;;;;;;;;5035582;28;20044;-68
2021/05/19 00:09:06;;;;;;;12.95;7.53;;;;;;;;;;5052234;28;20048;-71
2021/05/19 00:11:33;;;;;;;14.98;7.28;;;;;;;;;;5050973;28;20450;-71
2021/05/19 00:13:59;;;;;;;14.13;7.65;;;;;;;;;;5051330;28;20502;-71
2021/05/19 00:16:26;;;;;;;11.02;7.30;;;;;;;;;;5051477;28;20056;-71
2021/05/19 00:18:52;;;;;;;10.95;7.65;;;;;;;;;;5051490;28;20045;-72
2021/05/19 00:21:19;;;;;;;10.75;6.97;;;;;;;;;;5051424;28;20045;-71
2021/05/19 00:23:45;;;;;;;12.85;7.45;;;;;;;;;;5051907;28;20064;-71
2021/05/19 00:26:12;;;;;;;11.93;7.82;;;;;;;;;;5051032;28;20077;-71
2021/05/19 00:28:38;;;;;;;11.20;7.45;;;;;;;;;;5051253;28;20040;-70
2021/05/19 00:31:06;;;;;;;12.30;7.82;;;;;;;;;;5051371;28;20078;-70
2021/05/19 00:33:33;;;;;;;14.07;7.45;;;;;;;;;;5035141;28;20115;-71
2021/05/19 00:35:59;;;;;;;13.27;8.15;;;;;;;;;;5037294;28;20643;-70
2021/05/19 00:38:25;;;;;;;14.98;8.93;;;;;;;;;;5049048;28;20049;-70
2021/05/19 00:40:52;;;;;;;15.18;9.63;;;;;;;;;;5067054;28;20083;-70
2021/05/19 00:43:18;;;;;;;17.15;9.55;;;;;;;;;;5051337;28;20095;-70
2021/05/19 00:45:45;;;;;;;14.25;9.23;;;;;;;;;;5051622;28;20556;-71
2021/05/19 00:48:12;;;;;;;11.95;8.65;;;;;;;;;;5034851;28;20077;-70
2021/05/19 00:50:39;;;;;;;10.57;7.45;;;;;;;;;;5038872;28;20133;-72
2021/05/19 00:53:07;;;;;;;10.75;7.20;;;;;;;;;;5047222;28;20494;-75
2021/05/19 00:55:34;;;;;;;13.43;7.30;;;;;;;;;;5050109;28;20076;-75
2021/05/19 00:58:01;;;;;;;14.55;9.27;;;;;;;;;;5051586;28;20072;-77
2021/05/19 01:00:33;;;;;;;11.13;7.63;;;;;;;;;;5051506;28;20515;-77
2021/05/19 01:03:05;;;;;;;9.57;6.60;;;;;;;;;;5052358;28;20064;-72
2021/05/19 01:05:49;;;;;;;11.38;6.40;;;;;;;;;;5051065;28;20045;-73
2021/05/19 01:11:08;;;;;;;10.50;6.70;;;;;;;;;;5044151;28;20049;-75
2021/05/19 01:13:36;;;;;;;11.57;6.72;;;;;;;;;;5042550;28;20064;-74
2021/05/19 01:16:02;;;;;;;7.60;4.15;;;;;;;;;;5051263;28;20090;-72
2021/05/19 01:18:28;;;;;;;10.43;6.07;;;;;;;;;;5051254;28;20671;-73
2021/05/19 01:20:56;;;;;;;9.40;5.15;;;;;;;;;;5052000;28;20514;-76
2021/05/19 01:23:22;;;;;;;7.65;5.35;;;;;;;;;;5051320;28;20067;-74
2021/05/19 01:25:48;;;;;;;11.70;4.38;;;;;;;;;;5051102;28;20574;-74
2021/05/19 01:28:15;;;;;;;7.75;3.97;;;;;;;;;;5051163;28;20056;-73
2021/05/19 01:30:42;;;;;;;7.75;4.15;;;;;;;;;;5033617;28;20074;-74
2021/05/19 01:33:08;;;;;;;8.55;4.57;;;;;;;;;;5047891;28;20041;-73
2021/05/19 01:35:35;;;;;;;6.90;4.72;;;;;;;;;;5038450;28;20084;-73
2021/05/19 01:38:01;;;;;;;6.35;3.83;;;;;;;;;;5039828;28;20368;-75
2021/05/19 01:40:28;;;;;;;5.60;3.20;;;;;;;;;;5040380;28;20503;-76
2021/05/19 01:42:55;;;;;;;7.60;4.15;;;;;;;;;;5050881;28;20098;-75
2021/05/19 01:45:37;;;;;;;6.78;4.40;;;;;;;;;;5049817;28;20047;-74
2021/05/19 01:48:04;;;;;;;6.68;3.65;;;;;;;;;;5051956;28;20057;-76
2021/05/19 01:50:34;;;;;;;6.93;4.03;;;;;;;;;;5042641;28;20127;-74
2021/05/19 01:53:02;;;;;;;4.35;2.80;;;;;;;;;;5049692;28;20083;-75
2021/05/19 01:55:29;;;;;;;6.80;3.53;;;;;;;;;;5053201;28;20759;-75
2021/05/19 01:57:56;;;;;;;6.18;3.80;;;;;;;;;;5053380;28;20475;-77
2021/05/19 02:00:25;;;;;;;6.55;3.95;;;;;;;;;;5037163;28;20042;-77
2021/05/19 02:02:56;;;;;;;6.60;4.22;;;;;;;;;;5048661;28;20053;-75
2021/05/19 02:05:25;;;;;;;5.97;4.15;;;;;;;;;;5043555;28;20053;-77
2021/05/19 02:07:51;;;;;;;6.32;4.00;;;;;;;;;;5047015;28;20075;-77
2021/05/19 02:10:18;;;;;;;5.93;3.65;;;;;;;;;;5052878;28;20056;-77
2021/05/19 02:12:45;;;;;;;5.65;3.90;;;;;;;;;;5052976;28;20057;-78
2021/05/19 02:15:16;;;;;;;7.18;4.38;;;;;;;;;;5053271;28;20482;-80
2021/05/19 02:17:44;;;;;;;8.98;4.65;;;;;;;;;;5041307;28;20099;-78
2021/05/19 02:20:14;;;;;;;7.00;4.25;;;;;;;;;;5050429;28;20074;-77
2021/05/19 02:22:42;;;;;;;5.50;3.92;;;;;;;;;;5054047;28;20045;-77
2021/05/19 02:25:09;;;;;;;11.35;4.32;;;;;;;;;;5053856;28;20102;-78
2021/05/19 02:27:36;;;;;;;6.32;3.90;;;;;;;;;;5052904;28;20045;-77
2021/05/19 02:30:04;;;;;;;5.97;3.63;;;;;;;;;;5049274;28;20041;-76
2021/05/19 02:32:31;;;;;;;5.80;4.03;;;;;;;;;;5043113;28;20045;-74
2021/05/19 02:34:59;;;;;;;6.65;4.38;;;;;;;;;;5047203;28;20041;-72
2021/05/19 02:37:26;;;;;;;6.40;4.20;;;;;;;;;;5052588;28;20568;-74
2021/05/19 02:39:53;;;;;;;6.32;4.30;;;;;;;;;;5052568;28;20041;-74
2021/05/19 02:42:19;;;;;;;6.90;4.47;;;;;;;;;;5036547;28;20045;-73
2021/05/19 02:44:46;;;;;;;6.80;4.35;;;;;;;;;;5040523;28;20055;-73
2021/05/19 02:47:13;;;;;;;7.00;4.70;;;;;;;;;;5050084;28;20065;-71
2021/05/19 02:49:39;;;;;;;6.60;4.00;;;;;;;;;;5053497;28;20076;-75
2021/05/19 02:52:06;;;;;;;7.25;4.78;;;;;;;;;;5053483;28;20415;-72
2021/05/19 02:54:32;;;;;;;8.18;4.03;;;;;;;;;;5053263;28;20057;-73
2021/05/19 02:56:59;;;;;;;8.90;5.25;;;;;;;;;;5054178;28;20072;-73
2021/05/19 02:59:26;;;;;;;9.32;4.97;;;;;;;;;;5053359;28;20067;-72
2021/05/19 03:01:53;;;;;;;9.65;4.50;;;;;;;;;;5052573;28;20076;-72
2021/05/19 03:04:19;;;;;;;7.55;4.53;;;;;;;;;;5052995;28;20049;-69
2021/05/19 03:06:45;;;;;;;8.88;5.30;;;;;;;;;;5053370;28;20032;-69
2021/05/19 03:09:12;;;;;;;8.98;5.57;;;;;;;;;;5037754;28;20049;-69
2021/05/19 03:11:38;;;;;;;6.32;4.53;;;;;;;;;;5053117;28;20076;-69
2021/05/19 03:14:05;;;;;;;13.10;5.90;;;;;;;;;;5052963;28;20052;-69
2021/05/19 03:16:33;;;;;;;7.47;4.65;;;;;;;;;;5051939;28;20045;-69
2021/05/19 03:19:00;;;;;;;8.27;5.03;;;;;;;;;;5052429;28;20449;-69
2021/05/19 03:21:26;;;;;;;12.57;5.00;;;;;;;;;;5052641;28;20045;-70
2021/05/19 03:23:53;;;;;;;15.68;4.95;;;;;;;;;;5037917;28;20042;-70
2021/05/19 03:26:21;;;;;;;8.15;4.53;;;;;;;;;;5049826;28;20143;-69
2021/05/19 03:28:47;;;;;;;7.22;5.05;;;;;;;;;;5051166;28;20037;-69
2021/05/19 03:31:14;;;;;;;6.55;4.78;;;;;;;;;;5051873;28;20052;-69
2021/05/19 03:33:40;;;;;;;7.25;4.45;;;;;;;;;;5036725;28;20044;-68
2021/05/19 03:36:07;;;;;;;9.13;5.32;;;;;;;;;;5052580;28;20399;-68
2021/05/19 03:38:34;;;;;;;8.13;4.95;;;;;;;;;;5052467;28;20045;-68
2021/05/19 03:41:01;;;;;;;8.88;4.97;;;;;;;;;;5044936;28;20049;-67
2021/05/19 03:43:27;;;;;;;7.03;4.97;;;;;;;;;;5042656;28;20041;-68
2021/05/19 03:45:54;;;;;;;12.38;4.80;;;;;;;;;;5052268;28;20052;-68
2021/05/19 03:48:20;;;;;;;7.88;4.72;;;;;;;;;;5036532;28;20054;-68
2021/05/19 03:50:47;;;;;;;8.20;5.15;;;;;;;;;;5053165;28;20041;-67
2021/05/19 03:53:14;;;;;;;8.07;5.15;;;;;;;;;;5042825;28;20099;-68
2021/05/19 03:55:40;;;;;;;11.35;5.18;;;;;;;;;;5040713;28;20114;-67
2021/05/19 03:58:07;;;;;;;10.27;5.45;;;;;;;;;;5039989;28;20045;-68
2021/05/19 04:00:35;;;;;;;14.15;5.80;;;;;;;;;;5051682;28;20064;-68
2021/05/19 04:03:02;;;;;;;9.00;5.40;;;;;;;;;;5051124;28;20072;-68
2021/05/19 04:05:32;;;;;;;11.98;6.22;;;;;;;;;;5051973;28;20073;-67
2021/05/19 04:07:59;;;;;;;11.23;5.88;;;;;;;;;;5052064;28;20444;-67
2021/05/19 04:10:25;;;;;;;11.90;6.55;;;;;;;;;;5052062;28;20055;-68
2021/05/19 04:12:52;;;;;;;11.40;6.93;;;;;;;;;;5050978;28;20060;-67
2021/05/19 04:15:20;;;;;;;12.43;7.25;;;;;;;;;;5051860;28;20067;-66
2021/05/19 04:17:47;;;;;;;12.18;7.28;;;;;;;;;;5052560;28;20094;-68
2021/05/19 04:20:14;;;;;;;13.35;7.72;;;;;;;;;;5043366;28;20049;-66
2021/05/19 04:22:41;;;;;;;11.60;6.55;;;;;;;;;;5043874;28;20060;-66
2021/05/19 04:25:07;;;;;;;12.75;7.70;;;;;;;;;;5037056;28;20500;-67
2021/05/19 04:27:34;;;;;;;13.25;6.78;;;;;;;;;;5047534;28;20120;-64
2021/05/19 04:30:01;;;;;;;18.33;7.20;;;;;;;;;;5041468;28;20064;-63
2021/05/19 04:32:27;;;;;;;10.73;6.63;;;;;;;;;;5050291;28;20049;-63
2021/05/19 04:34:53;;;;;;;11.60;7.50;;;;;;;;;;5051549;28;20076;-66
2021/05/19 04:37:20;;;;;;;15.60;8.02;;;;;;;;;;5051604;28;20487;-64
2021/05/19 04:39:46;;;;;;;12.75;7.50;;;;;;;;;;5051647;28;20045;-63
2021/05/19 04:42:12;;;;;;;16.73;8.18;;;;;;;;;;5051846;28;20060;-62
2021/05/19 04:44:39;;;;;;;14.05;8.48;;;;;;;;;;5051600;28;20487;-62
2021/05/19 04:47:05;;;;;;;15.82;8.10;;;;;;;;;;5051536;28;20041;-61
2021/05/19 04:49:32;;;;;;;15.32;7.55;;;;;;;;;;5051596;28;20128;-62
2021/05/19 04:51:58;;;;;;;12.93;8.05;;;;;;;;;;5051031;28;20040;-61
2021/05/19 04:54:25;;;;;;;15.38;8.77;;;;;;;;;;5051454;28;20049;-60
2021/05/19 04:56:51;;;;;;;13.63;8.40;;;;;;;;;;5051037;28;20589;-61
2021/05/19 04:59:17;;;;;;;13.02;8.43;;;;;;;;;;5051071;28;20041;-61
2021/05/19 05:01:44;;;;;;;15.25;9.20;;;;;;;;;;5050759;28;20056;-61
2021/05/19 05:04:10;;;;;;;16.58;8.75;;;;;;;;;;5049829;28;20056;-60
2021/05/19 05:06:36;;;;;;;15.88;8.85;;;;;;;;;;5034967;28;20045;-61
2021/05/19 05:09:04;;;;;;;14.80;8.57;;;;;;;;;;5046456;28;20041;-61
2021/05/19 05:11:30;;;;;;;15.90;9.77;;;;;;;;;;5048530;28;20124;-61
2021/05/19 05:13:56;;;;;;;18.35;8.98;;;;;;;;;;5041682;28;20041;-61
2021/05/19 05:16:23;;;;;;;15.35;9.15;;;;;;;;;;5043185;28;20492;-61
2021/05/19 05:18:49;;;;;;;18.05;10.10;;;;;;;;;;5047890;28;20318;-61
2021/05/19 05:21:16;;;;;;;17.75;9.68;;;;;;;;;;5030638;28;20525;-60
2021/05/19 05:23:42;;;;;;;17.88;10.07;;;;;;;;;;5044912;28;20042;-61
2021/05/19 05:26:09;;;;;;;14.32;8.63;;;;;;;;;;5044553;28;20056;-61
2021/05/19 05:28:35;;;;;;;16.73;8.77;;;;;;;;;;5048792;28;20069;-61
2021/05/19 05:31:01;;;;;;;16.45;9.88;;;;;;;;;;5052647;28;20052;-61
2021/05/19 05:33:28;;;;;;;20.42;9.68;;;;;;;;;;5052292;28;20049;-61
2021/05/19 05:35:54;;;;;;;20.15;10.88;;;;;;;;;;5046049;28;20610;-61
2021/05/19 05:38:21;;;;;;;16.60;10.40;;;;;;;;;;5050100;28;20040;-61
2021/05/19 05:40:47;;;;;;;16.08;10.73;;;;;;;;;;5044735;28;20044;-62
2021/05/19 05:43:14;;;;;;;17.63;10.40;;;;;;;;;;5050845;28;20077;-62
2021/05/19 05:45:40;;;;;;;19.73;9.95;;;;;;;;;;5047785;28;20045;-59
2021/05/19 05:48:06;;;;;;;15.73;8.68;;;;;;;;;;5049949;28;20060;-61
2021/05/19 05:50:33;;;;;;;17.98;11.75;;;;;;;;;;5047988;28;20045;-61
2021/05/19 05:52:59;;;;;;;17.80;10.40;;;;;;;;;;5047639;28;20053;-62
2021/05/19 05:55:26;;;;;;;21.00;11.57;;;;;;;;;;5037522;28;20080;-62
2021/05/19 05:57:52;;;;;;;23.30;11.57;;;;;;;;;;5037002;28;20649;-62
2021/05/19 06:00:19;;;;;;;19.60;11.50;;;;;;;;;;5037395;28;20052;-62
2021/05/19 06:02:45;;;;;;;19.15;11.20;;;;;;;;;;5042178;28;20492;-62
2021/05/19 06:05:13;;;;;;;15.98;10.60;;;;;;;;;;5040757;28;20403;-62
2021/05/19 06:07:39;;;;;;;19.23;10.82;;;;;;;;;;5045604;28;20071;-62
2021/05/19 06:10:06;;;;;;;22.10;11.73;;;;;;;;;;5048310;28;20048;-62
2021/05/19 06:12:32;;;;;;;20.92;12.80;;;;;;;;;;5039204;28;21016;-62
2021/05/19 06:14:59;;;;;;;19.27;13.00;;;;;;;;;;5051030;28;20494;-62
2021/05/19 06:17:25;;;;;;;24.90;12.38;;;;;;;;;;5046141;28;20052;-63
2021/05/19 06:19:52;;;;;;;24.67;13.05;;;;;;;;;;5048978;28;20044;-62
2021/05/19 06:22:19;;;;;;;22.75;13.60;;;;;;;;;;5046303;28;20059;-60
2021/05/19 06:24:46;;;;;;;23.23;13.02;;;;;;;;;;5045851;28;20425;-62
2021/05/19 06:27:13;;;;;;;15.75;9.68;;;;;;;;;;5050815;28;20100;-63
2021/05/19 06:29:39;;;;;;;21.40;12.85;;;;;;;;;;5050541;28;20049;-63
2021/05/19 06:32:06;;;;;;;21.83;13.70;;;;;;;;;;5041168;28;20458;-62
2021/05/19 06:34:32;;;;;;;22.38;12.85;;;;;;;;;;5037617;28;20076;-63
2021/05/19 06:36:59;;;;;;;25.70;14.10;;;;;;;;;;5033581;28;20045;-63
2021/05/19 06:39:25;;;;;;;21.98;11.43;;;;;;;;;;5033602;28;20496;-63
2021/05/19 06:41:52;;;;;;;20.48;11.55;;;;;;;;;;5038867;28;20112;-63
2021/05/19 06:44:19;;;;;;;22.95;12.77;;;;;;;;;;5039428;28;20128;-64
2021/05/19 06:46:45;;;;;;;27.17;13.68;;;;;;;;;;5038290;28;20046;-62
2021/05/19 06:49:12;;;;;;;20.50;13.60;;;;;;;;;;5049434;28;20045;-63
2021/05/19 06:51:41;;;;;;;22.63;13.52;;;;;;;;;;5034745;28;20061;-63
2021/05/19 06:54:07;;;;;;;21.90;13.52;;;;;;;;;;5048529;28;20045;-63
2021/05/19 06:56:34;;;;;;;23.88;13.55;;;;;;;;;;5051534;28;20514;-62
2021/05/19 06:59:04;;;;;;;26.20;13.40;;;;;;;;;;5050494;28;20040;-63
2021/05/19 07:01:30;;;;;;;20.60;12.43;;;;;;;;;;5049161;28;20094;-63
2021/05/19 07:03:57;;;;;;;20.83;12.55;;;;;;;;;;5052207;28;20083;-62
2021/05/19 07:06:23;;;;;;;20.65;13.07;;;;;;;;;;5049359;28;20159;-62
2021/05/19 07:08:50;;;;;;;19.95;12.68;;;;;;;;;;5051887;28;20434;-63
2021/05/19 07:11:17;;;;;;;26.27;13.68;;;;;;;;;;5052176;28;20049;-63
2021/05/19 07:13:43;;;;;;;21.02;12.57;;;;;;;;;;5052623;28;20438;-61
2021/05/19 07:16:11;;;;;;;19.77;12.27;;;;;;;;;;5052462;28;20045;-62
2021/05/19 07:18:37;;;;;;;21.95;13.82;;;;;;;;;;5034965;28;20056;-62
2021/05/19 07:21:04;;;;;;;20.33;12.63;;;;;;;;;;5052939;28;20048;-62
2021/05/19 07:23:30;;;;;;;19.75;12.38;;;;;;;;;;5052074;28;20132;-61
2021/05/19 07:25:57;;;;;;;20.33;13.57;;;;;;;;;;5051039;28;20449;-62
2021/05/19 07:28:23;;;;;;;19.38;11.93;;;;;;;;;;5052000;28;20128;-61
2021/05/19 07:30:49;;;;;;;24.58;15.15;;;;;;;;;;5052559;28;20435;-62
2021/05/19 07:33:16;;;;;;;17.55;11.02;;;;;;;;;;5052101;28;20053;-62
2021/05/19 07:35:44;;;;;;;19.58;12.30;;;;;;;;;;5052416;28;20044;-61
2021/05/19 07:38:13;;;;;;;19.27;11.73;;;;;;;;;;5052061;28;20052;-61
2021/05/19 07:40:40;;;;;;;20.23;11.48;;;;;;;;;;5048684;28;20057;-62
2021/05/19 07:43:06;;;;;;;15.25;10.57;;;;;;;;;;5039451;28;20151;-61
2021/05/19 07:45:33;;;;;;;16.90;11.40;;;;;;;;;;5051313;28;20426;-61
2021/05/19 07:47:59;;;;;;;18.02;12.38;;;;;;;;;;5052269;28;20082;-61
2021/05/19 07:50:26;;;;;;;15.32;10.15;;;;;;;;;;5051399;28;20395;-62
2021/05/19 07:52:53;;;;;;;18.38;11.40;;;;;;;;;;5045200;28;20050;-61
2021/05/19 07:55:33;;;;;;;18.00;11.60;;;;;;;;;;5040767;28;20502;-61
2021/05/19 07:58:04;;;;;;;15.30;9.77;;;;;;;;;;5050768;28;20041;-61
2021/05/19 08:03:00;;;;;;;16.08;10.15;;;;;;;;;;5052159;28;20106;-61
2021/05/19 08:05:26;;;;;;;15.70;10.48;;;;;;;;;;5051456;28;20474;-61
2021/05/19 08:07:53;;;;;;;12.38;7.90;;;;;;;;;;5051178;28;20127;-61
2021/05/19 08:10:21;;;;;;;16.25;9.68;;;;;;;;;;5050917;28;20056;-61
2021/05/19 08:12:47;;;;;;;17.15;10.38;;;;;;;;;;5051398;28;20073;-61
2021/05/19 08:15:14;;;;;;;16.48;10.80;;;;;;;;;;5051616;28;20049;-61
2021/05/19 08:17:41;;;;;;;18.23;10.43;;;;;;;;;;5051947;28;20581;-60
2021/05/19 08:20:07;;;;;;;17.20;10.55;;;;;;;;;;5043923;28;20039;-60
2021/05/19 08:22:34;;;;;;;15.70;8.70;;;;;;;;;;5042193;28;20063;-61
2021/05/19 08:25:00;;;;;;;17.25;10.18;;;;;;;;;;5050852;28;20048;-61
2021/05/19 08:27:27;;;;;;;17.15;11.00;;;;;;;;;;5049369;28;20060;-60
2021/05/19 08:29:53;;;;;;;16.65;10.25;;;;;;;;;;5040182;28;20050;-60
2021/05/19 08:32:20;;;;;;;18.60;11.77;;;;;;;;;;5040347;28;20056;-60
2021/05/19 08:34:46;;;;;;;19.45;12.75;;;;;;;;;;5042693;28;20048;-60
2021/05/19 08:37:13;;;;;;;18.13;13.15;;;;;;;;;;5043785;28;20072;-60
2021/05/19 08:39:39;;;;;;;23.08;14.15;;;;;;;;;;5041269;28;20094;-60
2021/05/19 08:42:05;;;;;;;20.48;12.23;;;;;;;;;;5051835;28;20566;-60
2021/05/19 08:44:32;;;;;;;19.60;11.15;;;;;;;;;;5051166;28;20053;-60
2021/05/19 08:46:59;;;;;;;23.15;14.93;;;;;;;;;;5050822;28;20120;-60
2021/05/19 08:49:26;;;;;;;22.08;15.15;;;;;;;;;;5050704;28;20064;-60
2021/05/19 08:51:55;;;;;;;23.73;15.07;;;;;;;;;;5053369;28;20049;-61
2021/05/19 08:54:22;;;;;;;21.02;14.65;;;;;;;;;;5060105;28;20044;-60
2021/05/19 08:56:49;;;;;;;19.48;13.85;;;;;;;;;;5058373;28;20068;-60
2021/05/19 08:59:17;;;;;;;21.05;13.10;;;;;;;;;;5052632;28;20041;-60
2021/05/19 09:01:44;;;;;;;18.20;13.02;;;;;;;;;;5054479;28;20041;-60
2021/05/19 09:04:16;;;;;;;17.35;10.98;;;;;;;;;;5054497;28;20068;-60
2021/05/19 09:06:43;;;;;;;15.85;9.90;;;;;;;;;;5039048;28;20049;-60
2021/05/19 09:09:19;;;;;;;17.80;11.60;;;;;;;;;;5051144;28;20068;-60
2021/05/19 09:11:55;;;;;;;16.92;10.75;;;;;;;;;;5054132;28;20076;-60
2021/05/19 09:14:22;;;;;;;13.65;9.55;;;;;;;;;;5054385;28;20530;-60
2021/05/19 09:16:48;;;;;;;16.33;10.43;;;;;;;;;;5049061;28;20068;-60
2021/05/19 09:19:14;;;;;;;13.10;8.32;;;;;;;;;;5042937;28;20053;-60
2021/05/19 09:21:42;;;;;;;10.85;8.35;;;;;;;;;;5044080;28;20048;-60
2021/05/19 09:24:14;;;;;;;12.27;8.68;;;;;;;;;;5055303;28;20107;-59
2021/05/19 09:27:00;;;;;;;14.70;7.38;;;;;;;;;;5054383;28;20519;-60
2021/05/19 09:29:28;;;;;;;11.05;8.27;;;;;;;;;;5054030;28;20052;-60
2021/05/19 09:32:02;;;;;;;12.57;8.52;;;;;;;;;;5054255;28;20059;-60
2021/05/19 09:34:29;;;;;;;10.00;7.53;;;;;;;;;;5054303;28;20499;-60
2021/05/19 09:37:14;;;;;;;10.95;6.45;;;;;;;;;;5054788;28;20040;-60
2021/05/19 09:39:41;;;;;;;;;;;;;;;;;;5039083;28;20048;-60
2021/05/19 09:42:07;;;;;;;9.82;5.72;;;;;;;;;;5055286;28;19927;-60
2021/05/19 09:44:33;;;;;;;10.80;6.10;;;;;;;;;;5054269;28;20078;-60
2021/05/19 09:46:59;;;;;;;9.10;6.50;;;;;;;;;;5054446;28;20044;-60
2021/05/19 09:49:26;;;;;;;8.50;6.22;;;;;;;;;;5054458;28;20073;-60
2021/05/19 09:51:54;;;;;;;12.00;6.20;;;;;;;;;;5054555;28;20156;-60
2021/05/19 09:54:33;;;;;;;9.38;5.95;;;;;;;;;;5054745;28;20125;-60
2021/05/19 09:57:10;;;;;;;8.20;4.78;;;;;;;;;;5055165;28;20053;-60
2021/05/19 09:59:36;;;;;;;5.97;3.95;;;;;;;;;;5054114;28;20044;-60
2021/05/19 10:02:04;;;;;;;12.18;4.90;;;;;;;;;;5054100;28;20048;-60
2021/05/19 10:04:34;;;;;;;8.50;4.80;;;;;;;;;;5054033;28;20052;-60
2021/05/19 10:07:01;;;;;;;8.80;4.65;;;;;;;;;;5054409;28;20045;-60
2021/05/19 10:09:28;;;;;;;5.20;4.18;;;;;;;;;;5053922;28;20491;-60
2021/05/19 10:11:55;;;;;;;9.25;4.95;;;;;;;;;;5038518;28;20057;-60
2021/05/19 10:14:22;;;;;;;7.20;4.72;;;;;;;;;;5051400;28;20048;-60
2021/05/19 10:16:52;;;;;;;4.68;3.08;;;;;;;;;;5049509;28;20048;-60
2021/05/19 10:19:22;;;;;;;7.25;3.80;;;;;;;;;;5043043;28;20049;-60
2021/05/19 10:21:48;;;;;;;11.65;3.50;;;;;;;;;;5053864;28;20099;-60
2021/05/19 10:24:15;;;;;;;5.97;3.33;;;;;;;;;;5054189;28;20384;-60
2021/05/19 10:27:00;;;;;;;5.80;4.10;;;;;;;;;;5054180;28;20403;-60
2021/05/19 10:29:45;;;;;;;6.10;3.83;;;;;;;;;;5053718;28;20155;-60
2021/05/19 10:32:11;;;;;;;;;;;;;;;;;;5053803;28;20384;-59
2021/05/19 10:34:45;;;;;;;5.45;3.60;;;;;;;;;;5053474;28;20406;-60
2021/05/19 10:37:31;;;;;;;6.03;3.75;;;;;;;;;;5053642;28;20095;-60
2021/05/19 10:40:15;;;;;;;6.30;3.45;;;;;;;;;;5049533;28;20064;-60
2021/05/19 10:42:43;;;;;;;8.68;4.15;;;;;;;;;;5037359;28;20045;-60
2021/05/19 10:45:13;;;;;;;7.97;3.20;;;;;;;;;;5049820;28;20102;-60
2021/05/19 10:47:44;;;;;;;4.57;2.95;;;;;;;;;;5052354;28;20506;-59
2021/05/19 10:50:23;;;;;;;7.60;3.00;;;;;;;;;;5053206;28;20045;-60
2021/05/19 10:58:22;;;;;;;;;;;;;;;;;;5053355;28;20068;-60
2021/05/19 11:00:49;;;;;;;2.58;2.03;;;;;;;;;;5052938;28;19928;-60
2021/05/19 11:03:16;;;;;;;2.90;1.95;;;;;;;;;;5053442;28;20119;-59
2021/05/19 11:05:57;;;;;;;3.67;2.10;;;;;;;;;;5040000;28;20041;-60
2021/05/19 11:08:24;;;;;;;3.00;2.10;;;;;;;;;;5044086;28;20050;-60
2021/05/19 11:11:02;;;;;;;4.15;2.38;;;;;;;;;;5043048;28;20049;-59
2021/05/19 11:13:49;;;;;;;3.40;2.50;;;;;;;;;;5023912;28;20131;-60
2021/05/19 11:16:16;;;;;;;3.92;2.58;;;;;;;;;;5048801;28;20549;-60
2021/05/19 11:21:19;;;;;;;8.20;2.85;;;;;;;;;;5037709;28;20057;-60
2021/05/19 11:24:25;;;;;;;6.20;2.70;;;;;;;;;;5052396;28;20041;-61
2021/05/19 11:26:51;;;;;;;8.38;2.55;;;;;;;;;;5018027;28;20050;-61
2021/05/19 11:29:18;;;;;;;4.57;3.08;;;;;;;;;;5019098;28;20060;-60
2021/05/19 11:31:46;;;;;;;3.17;2.30;;;;;;;;;;5020717;28;20076;-61
2021/05/19 11:34:14;;;;;;;5.10;2.97;;;;;;;;;;5018781;28;20504;-61
2021/05/19 11:36:42;;;;;;;4.65;2.95;;;;;;;;;;5014496;28;20154;-61
2021/05/19 11:39:24;;;;;;;3.50;2.72;;;;;;;;;;5015694;28;20408;-61
2021/05/19 11:41:51;;;;;;;5.40;2.50;;;;;;;;;;5018042;28;20595;-60
2021/05/19 11:44:34;;;;;;;4.50;2.67;;;;;;;;;;5006816;28;20046;-61
2021/05/19 11:47:01;;;;;;;4.25;2.85;;;;;;;;;;5018930;28;20058;-61
2021/05/19 11:49:28;;;;;;;4.65;2.97;;;;;;;;;;5018838;28;20049;-61
2021/05/19 11:51:54;;;;;;;4.93;3.05;;;;;;;;;;4999008;28;20073;-61
2021/05/19 11:54:24;;;;;;;5.22;2.70;;;;;;;;;;5014124;28;20505;-60
2021/05/19 11:56:54;;;;;;;4.18;2.88;;;;;;;;;;5018003;28;20057;-61
2021/05/19 11:59:24;;;;;;;7.30;2.83;;;;;;;;;;5018437;28;20554;-61
2021/05/19 12:01:58;;;;;;;4.47;2.33;;;;;;;;;;5029136;28;20060;-61
2021/05/19 12:04:24;;;;;;;;;;;;;;;;;;5052321;28;20456;-62
2021/05/19 12:06:51;;;;;;;4.65;2.05;;;;;;;;;;5050884;28;20367;-61
2021/05/19 12:09:18;;;;;;;4.20;2.65;;;;;;;;;;5035912;28;20056;-61
2021/05/19 12:11:45;;;;;;;3.60;2.40;;;;;;;;;;5052113;28;20061;-61
2021/05/19 12:14:12;;;;;;;3.63;2.40;;;;;;;;;;5043954;28;20049;-61
2021/05/19 12:16:40;;;;;;;7.85;2.47;;;;;;;;;;5039196;28;20442;-60
2021/05/19 12:19:11;;;;;;;4.97;3.22;;;;;;;;;;5038980;28;20049;-60
2021/05/19 12:21:38;;;;;;;2.75;2.30;;;;;;;;;;5051759;28;20122;-60
2021/05/19 12:24:05;;;;;;;5.07;2.72;;;;;;;;;;5052550;28;20043;-60
2021/05/19 12:26:32;;;;;;;3.80;2.25;;;;;;;;;;5051549;28;20059;-60
2021/05/19 12:28:58;;;;;;;3.05;1.98;;;;;;;;;;5045027;28;20081;-60
2021/05/19 12:31:26;;;;;;;4.18;2.20;;;;;;;;;;5050953;28;20514;-60
2021/05/19 12:33:52;;;;;;;3.88;2.05;;;;;;;;;;5049625;28;20483;-61
2021/05/19 12:36:32;;;;;;;4.32;2.45;;;;;;;;;;5051595;28;20049;-60
2021/05/19 12:39:00;;;;;;;5.32;2.80;;;;;;;;;;5052507;28;20384;-60
2021/05/19 12:41:41;;;;;;;3.53;2.25;;;;;;;;;;5050659;28;20049;-60
2021/05/19 12:44:08;;;;;;;4.38;2.38;;;;;;;;;;5042958;28;20060;-60
2021/05/19 12:46:34;;;;;;;2.92;2.15;;;;;;;;;;5042293;28;20045;-61
2021/05/19 12:49:06;;;;;;;6.38;1.92;;;;;;;;;;5051282;28;20051;-60
2021/05/19 12:52:07;;;;;;;2.95;1.95;;;;;;;;;;5051474;28;20495;-60
2021/05/19 12:54:36;;;;;;;4.32;2.10;;;;;;;;;;5008136;28;20103;-60
2021/05/19 12:57:04;;;;;;;3.38;2.13;;;;;;;;;;5009617;28;20056;-60
2021/05/19 12:59:49;;;;;;;3.08;1.95;;;;;;;;;;4991968;28;20145;-60
2021/05/19 13:02:15;;;;;;;;;;;;;;;;;;5009976;28;20100;-60
2021/05/19 13:04:46;;;;;;;3.03;2.00;;;;;;;;;;5009512;28;19921;-60
2021/05/19 13:07:14;;;;;;;3.60;2.00;;;;;;;;;;5009638;28;20054;-60
2021/05/19 13:09:41;;;;;;;5.05;2.08;;;;;;;;;;4992346;28;20093;-59
2021/05/19 13:12:20;;;;;;;4.72;2.15;;;;;;;;;;5009402;28;20161;-60
2021/05/19 13:14:49;;;;;;;3.85;2.20;;;;;;;;;;4997910;28;20065;-60
2021/05/19 13:20:11;;;;;;;6.28;2.22;;;;;;;;;;5009533;28;20488;-60
2021/05/19 13:22:37;;;;;;;3.10;2.00;;;;;;;;;;5009137;28;20054;-60
2021/05/19 13:25:05;;;;;;;4.43;2.38;;;;;;;;;;5009098;28;20070;-60
2021/05/19 13:27:34;;;;;;;2.72;2.08;;;;;;;;;;5012761;28;20050;-60
2021/05/19 13:30:04;;;;;;;3.00;1.88;;;;;;;;;;5037836;28;20418;-60
2021/05/19 13:32:54;;;;;;;4.13;2.13;;;;;;;;;;5039332;28;20103;-60
2021/05/19 13:38:05;;;;;;;2.60;1.40;;;;;;;;;;5050720;28;20487;-60
2021/05/19 13:40:32;;;;;;;3.42;1.70;;;;;;;;;;5050432;28;20110;-60
2021/05/19 13:42:58;;;;;;;2.40;1.60;;;;;;;;;;5050835;28;20041;-60
2021/05/19 13:45:24;;;;;;;3.72;1.80;;;;;;;;;;5052262;28;20479;-60
2021/05/19 13:47:51;;;;;;;5.72;1.98;;;;;;;;;;5054343;28;20494;-60
2021/05/19 13:50:19;;;;;;;4.13;1.92;;;;;;;;;;5054446;28;20119;-60
2021/05/19 13:52:46;;;;;;;4.57;2.22;;;;;;;;;;5054052;28;20146;-60
2021/05/19 13:55:12;;;;;;;2.50;1.67;;;;;;;;;;5054030;28;20041;-60
2021/05/19 13:57:39;;;;;;;3.00;1.67;;;;;;;;;;5053151;28;20045;-60
2021/05/19 14:00:06;;;;;;;7.53;2.42;;;;;;;;;;5038816;28;20047;-60
2021/05/19 14:02:39;;;;;;;3.60;1.83;;;;;;;;;;5042647;28;20057;-60
2021/05/19 14:05:06;;;;;;;3.20;1.90;;;;;;;;;;5042727;28;20565;-60
2021/05/19 14:07:33;;;;;;;3.30;2.08;;;;;;;;;;5044914;28;20136;-60
2021/05/19 14:09:59;;;;;;;4.57;1.90;;;;;;;;;;5053801;28;20488;-59
2021/05/19 14:15:09;;;;;;;5.30;2.10;;;;;;;;;;5053085;28;20491;-59
2021/05/19 14:28:15;;;;;;;4.85;2.00;;;;;;;;;;5052744;28;20451;-60
2021/05/19 14:30:42;;;;;;;6.40;2.20;;;;;;;;;;5042110;28;20052;-60
2021/05/19 14:33:08;;;;;;;3.70;2.15;;;;;;;;;;5054528;28;20053;-59
2021/05/19 14:36:35;;;;;;;2.80;1.77;;;;;;;;;;5041836;28;20076;-60
2021/05/19 14:44:48;;;;;;;3.73;2.17;;;;;;;;;;5078284;28;19917;-60
2021/05/19 14:59:00;;;;;;;5.53;2.28;;;;;;;;;;5050895;28;20510;-60
2021/05/19 15:00:17;;;;;;;5.15;2.40;;;;;;;;;;5050036;28;20037;-60
2021/05/19 15:02:46;;;;;;;6.85;2.90;;;;;;;;;;5041684;28;20495;-60
2021/05/19 15:05:13;;;;;;;4.20;2.60;;;;;;;;;;5049680;28;20112;-60
2021/05/19 15:07:39;;;;;;;10.68;2.47;;;;;;;;;;5053020;28;20044;-60
2021/05/19 15:10:06;;;;;;;4.40;2.85;;;;;;;;;;5049930;28;20063;-59
2021/05/19 15:12:33;;;;;;;4.72;3.17;;;;;;;;;;5035325;28;20053;-59
2021/05/19 15:14:59;;;;;;;4.03;2.90;;;;;;;;;;5053681;28;20395;-59
2021/05/19 15:17:25;;;;;;;4.25;2.97;;;;;;;;;;5052733;28;20052;-59
2021/05/19 15:19:52;;;;;;;5.15;2.67;;;;;;;;;;5052785;28;20045;-60
2021/05/19 15:22:19;;;;;;;6.88;3.38;;;;;;;;;;5052278;28;20045;-58
2021/05/19 15:24:45;;;;;;;5.07;2.88;;;;;;;;;;5052588;28;20081;-60
2021/05/19 15:27:12;;;;;;;4.03;2.53;;;;;;;;;;5049099;28;20121;-59
2021/05/19 15:29:39;;;;;;;3.42;2.30;;;;;;;;;;5041556;28;20048;-60
2021/05/19 15:32:07;;;;;;;3.08;1.75;;;;;;;;;;5046595;28;20056;-60